createdAt,value
2023-09-24T00:01:07.360Z,98.20
2023-09-24T00:03:36.867Z,98.23
2023-09-24T00:06:06.518Z,98.36
2023-09-24T00:08:34.528Z,98.86
2023-09-24T00:11:03.850Z,98.90
2023-09-24T00:13:35.056Z,98.99
2023-09-24T00:16:07.182Z,98.86
2023-09-24T00:18:37.039Z,99.62
2023-09-24T00:21:05.460Z,99.92
2023-09-24T00:23:33.386Z,100.00
2023-09-24T00:26:01.301Z,100.00
2023-09-24T00:28:29.776Z,100.00
2023-09-24T00:30:59.424Z,100.00
2023-09-24T00:33:27.452Z,100.00
2023-09-24T00:35:59.467Z,100.00
2023-09-24T00:38:28.616Z,100.00
2023-09-24T00:40:56.557Z,100.00
2023-09-24T00:43:29.717Z,100.00
2023-09-24T00:45:59.164Z,100.00
2023-09-24T00:48:31.754Z,100.00
2023-09-24T00:51:03.249Z,100.00
2023-09-24T00:53:32.564Z,100.00
2023-09-24T00:56:01.226Z,100.00
2023-09-24T00:58:32.038Z,100.00
2023-09-24T01:01:00.226Z,100.00
2023-09-24T01:03:29.325Z,100.00
2023-09-24T01:05:57.699Z,100.00
2023-09-24T01:08:32.471Z,100.00
2023-09-24T01:11:01.071Z,100.00
2023-09-24T01:13:39.148Z,100.00
2023-09-24T01:16:07.986Z,100.00
2023-09-24T01:18:37.995Z,100.00
2023-09-24T01:21:08.767Z,100.00
2023-09-24T01:23:39.886Z,100.00
2023-09-24T01:26:08.992Z,100.00
2023-09-24T01:28:36.865Z,100.00
2023-09-24T01:31:04.957Z,100.00
2023-09-24T01:33:33.672Z,100.00
2023-09-24T01:36:01.796Z,100.00
2023-09-24T01:38:29.738Z,100.00
2023-09-24T01:40:59.556Z,100.00
2023-09-24T01:43:27.970Z,100.00
2023-09-24T01:45:55.823Z,100.00
2023-09-24T01:48:25.000Z,100.00
2023-09-24T01:50:54.026Z,100.00
2023-09-24T01:53:23.844Z,100.00
2023-09-24T01:55:53.030Z,100.00
2023-09-24T01:58:22.361Z,100.00
2023-09-24T02:00:50.651Z,100.00
2023-09-24T02:03:18.685Z,100.00
2023-09-24T02:05:47.990Z,100.00
2023-09-24T02:08:16.232Z,100.00
2023-09-24T02:10:45.066Z,100.00
2023-09-24T02:13:14.448Z,100.00
2023-09-24T02:15:45.620Z,100.00
2023-09-24T02:18:14.115Z,100.00
2023-09-24T02:20:43.569Z,100.00
2023-09-24T02:23:12.108Z,100.00
2023-09-24T02:25:39.992Z,100.00
2023-09-24T02:28:08.722Z,100.00
2023-09-24T02:30:38.188Z,100.00
2023-09-24T02:33:07.998Z,100.00
2023-09-24T02:35:36.941Z,100.00
2023-09-24T02:38:08.326Z,100.00
2023-09-24T02:40:36.818Z,100.00
2023-09-24T02:43:05.496Z,100.00
2023-09-24T02:45:34.308Z,100.00
2023-09-24T02:48:04.738Z,100.00
2023-09-24T02:50:34.239Z,100.00
2023-09-24T02:53:05.928Z,100.00
2023-09-24T02:55:34.867Z,100.00
2023-09-24T02:58:06.656Z,100.00
2023-09-24T03:00:37.555Z,100.00
2023-09-24T03:03:07.579Z,100.00
2023-09-24T03:05:37.553Z,100.00
2023-09-24T03:08:07.360Z,100.00
2023-09-24T03:10:36.802Z,100.00
2023-09-24T03:13:06.095Z,100.00
2023-09-24T03:15:34.496Z,100.00
2023-09-24T03:18:03.296Z,100.00
2023-09-24T03:20:31.762Z,100.00
2023-09-24T03:23:04.545Z,100.00
2023-09-24T03:25:33.532Z,100.00
2023-09-24T03:28:02.988Z,100.00
2023-09-24T03:30:32.030Z,100.00
2023-09-24T03:33:01.576Z,100.00
2023-09-24T03:35:29.949Z,100.00
2023-09-24T03:37:58.796Z,100.00
2023-09-24T03:40:30.260Z,100.00
2023-09-24T03:42:58.632Z,100.00
2023-09-24T03:45:27.502Z,100.00
2023-09-24T03:47:58.341Z,100.00
2023-09-24T03:51:08.275Z,100.00
2023-09-24T03:53:36.243Z,100.00
2023-09-24T03:56:08.503Z,100.00
2023-09-24T03:58:36.546Z,100.00
2023-09-24T04:01:11.117Z,100.00
2023-09-24T04:03:39.562Z,100.00
2023-09-24T04:06:12.998Z,100.00
2023-09-24T04:08:41.475Z,100.00
2023-09-24T04:11:12.997Z,100.00
2023-09-24T04:13:41.254Z,100.00
2023-09-24T04:16:11.636Z,100.00
2023-09-24T04:18:39.902Z,100.00
2023-09-24T04:21:16.549Z,100.00
2023-09-24T04:23:44.738Z,100.00
2023-09-24T04:26:22.801Z,100.00
2023-09-24T04:28:51.918Z,100.00
2023-09-24T04:31:19.822Z,100.00
2023-09-24T04:33:49.482Z,100.00
2023-09-24T04:36:19.233Z,100.00
2023-09-24T04:38:48.248Z,100.00
2023-09-24T04:41:17.390Z,100.00
2023-09-24T04:43:46.991Z,100.00
2023-09-24T04:46:15.236Z,100.00
2023-09-24T04:48:43.411Z,100.00
2023-09-24T04:51:12.134Z,100.00
2023-09-24T04:53:40.865Z,100.00
2023-09-24T04:56:09.800Z,100.00
2023-09-24T04:58:37.698Z,100.00
2023-09-24T05:01:09.861Z,100.00
2023-09-24T05:03:43.980Z,100.00
2023-09-24T05:06:12.489Z,100.00
2023-09-24T05:08:40.394Z,100.00
2023-09-24T05:11:11.599Z,100.00
2023-09-24T05:13:39.526Z,100.00
2023-09-24T05:16:09.848Z,100.00
2023-09-24T05:18:38.656Z,100.00
2023-09-24T05:21:15.575Z,100.00
2023-09-24T05:23:43.614Z,100.00
2023-09-24T05:26:13.246Z,100.00
2023-09-24T05:28:41.495Z,100.00
2023-09-24T05:31:10.632Z,100.00
2023-09-24T05:33:39.355Z,100.00
2023-09-24T05:36:08.994Z,100.00
2023-09-24T05:38:37.060Z,100.00
2023-09-24T05:41:06.591Z,100.00
2023-09-24T05:43:34.548Z,100.00
2023-09-24T05:46:03.366Z,100.00
2023-09-24T05:48:32.662Z,100.00
2023-09-24T05:51:04.971Z,100.00
2023-09-24T05:53:33.663Z,100.00
2023-09-24T05:56:04.369Z,100.00
2023-09-24T05:58:32.309Z,100.00
2023-09-24T06:01:00.963Z,100.00
2023-09-24T06:03:28.966Z,100.00
2023-09-24T06:05:58.320Z,100.00
2023-09-24T06:08:26.218Z,100.00
2023-09-24T06:10:54.208Z,100.00
2023-09-24T06:13:22.213Z,100.00
2023-09-24T06:15:50.113Z,100.00
2023-09-24T06:18:18.065Z,100.00
2023-09-24T06:20:46.019Z,100.00
2023-09-24T06:23:15.227Z,100.00
2023-09-24T06:25:43.355Z,100.00
2023-09-24T06:28:11.613Z,100.00
2023-09-24T06:30:39.903Z,100.00
2023-09-24T06:33:08.635Z,100.00
2023-09-24T06:35:39.005Z,100.00
2023-09-24T06:38:06.910Z,99.49
2023-09-24T06:40:40.133Z,96.94
2023-09-24T06:43:08.281Z,97.61
2023-09-24T06:45:37.071Z,98.28
2023-09-24T06:48:05.684Z,97.28
2023-09-24T06:50:35.682Z,96.81
2023-09-24T06:53:03.570Z,96.89
2023-09-24T06:55:31.448Z,96.97
2023-09-24T06:58:00.809Z,95.41
2023-09-24T07:00:28.813Z,93.85
2023-09-24T07:02:56.718Z,91.46
2023-09-24T07:05:24.639Z,91.64
2023-09-24T07:07:52.909Z,92.00
2023-09-24T07:10:23.396Z,89.17
2023-09-24T07:12:51.381Z,89.32
2023-09-24T07:15:20.963Z,87.75
2023-09-24T07:17:48.953Z,86.06
2023-09-24T07:20:17.156Z,86.24
2023-09-24T07:22:45.075Z,83.90
2023-09-24T07:25:12.970Z,81.99
2023-09-24T07:27:42.151Z,81.48
2023-09-24T07:30:11.162Z,80.00
2023-09-24T07:32:40.774Z,77.00
2023-09-24T07:35:10.443Z,75.17
2023-09-24T07:37:40.173Z,75.51
2023-09-24T07:40:10.138Z,75.50
2023-09-24T07:42:39.649Z,75.89
2023-09-24T07:45:13.033Z,72.45
2023-09-24T07:47:42.384Z,73.22
2023-09-24T07:50:11.782Z,74.88
2023-09-24T07:52:39.635Z,70.69
2023-09-24T07:55:08.049Z,71.50
2023-09-24T07:57:35.839Z,69.97
2023-09-24T08:00:04.606Z,68.69
2023-09-24T08:02:39.956Z,68.65
2023-09-24T08:05:11.046Z,67.49
2023-09-24T08:07:41.096Z,67.46
2023-09-24T08:10:11.088Z,68.98
2023-09-24T08:12:38.898Z,68.35
2023-09-24T08:15:07.896Z,69.69
2023-09-24T08:17:36.069Z,70.35
2023-09-24T08:20:04.156Z,68.73
2023-09-24T08:22:33.544Z,68.39
2023-09-24T08:25:01.597Z,68.82
2023-09-24T08:27:29.454Z,66.31
2023-09-24T08:29:57.573Z,64.76
2023-09-24T08:32:25.945Z,65.57
2023-09-24T08:34:53.827Z,65.40
2023-09-24T08:37:21.802Z,65.58
2023-09-24T08:39:51.122Z,66.99
2023-09-24T08:42:21.659Z,64.56
2023-09-24T08:44:59.358Z,65.34
2023-09-24T08:47:29.002Z,63.57
2023-09-24T08:49:58.493Z,63.98
2023-09-24T08:52:27.156Z,61.26
2023-09-24T08:54:56.712Z,62.89
2023-09-24T08:57:24.614Z,62.43
2023-09-24T08:59:53.109Z,61.42
2023-09-24T09:02:21.168Z,60.55
2023-09-24T09:04:50.928Z,59.03
2023-09-24T09:07:19.056Z,58.38
2023-09-24T09:09:55.824Z,59.55
2023-09-24T09:12:27.103Z,57.86
2023-09-24T09:14:56.434Z,55.03
2023-09-24T09:17:25.306Z,55.21
2023-09-24T09:19:55.405Z,55.86
2023-09-24T09:22:24.703Z,55.71
2023-09-24T09:25:04.957Z,55.36
2023-09-24T09:27:34.925Z,56.16
2023-09-24T09:30:14.401Z,53.48
2023-09-24T09:32:42.406Z,50.17
2023-09-24T09:35:10.588Z,50.51
2023-09-24T09:37:39.461Z,50.46
2023-09-24T09:40:08.328Z,48.77
2023-09-24T09:42:38.547Z,48.32
2023-09-24T09:45:08.229Z,48.50
2023-09-24T09:47:45.494Z,49.17
2023-09-24T09:50:18.327Z,50.10
2023-09-24T09:52:47.276Z,48.31
2023-09-24T09:55:15.464Z,47.75
2023-09-24T09:57:45.217Z,46.37
2023-09-24T10:00:15.998Z,43.00
2023-09-24T10:02:48.859Z,41.16
2023-09-24T10:05:19.491Z,41.82
2023-09-24T10:07:48.291Z,38.90
2023-09-24T10:10:43.496Z,39.59
2023-09-24T10:13:45.659Z,39.01
2023-09-24T10:16:38.486Z,38.19
2023-09-24T10:19:11.141Z,39.02
2023-09-24T10:21:40.714Z,39.45
2023-09-24T10:24:48.400Z,38.14
2023-09-24T10:27:16.844Z,38.35
2023-09-24T10:30:05.164Z,36.28
2023-09-24T10:32:46.781Z,36.73
2023-09-24T10:35:14.922Z,37.96
2023-09-24T10:38:06.070Z,38.20
2023-09-24T10:40:35.235Z,39.05
2023-09-24T10:43:27.249Z,40.83
2023-09-24T10:46:27.532Z,39.88
2023-09-24T10:48:58.202Z,36.90
2023-09-24T10:51:26.508Z,38.25
2023-09-24T10:54:12.759Z,38.44
2023-09-24T10:56:40.977Z,38.80
2023-09-24T10:59:08.956Z,38.35
2023-09-24T11:01:36.801Z,39.65
2023-09-24T11:04:06.248Z,36.38
2023-09-24T11:06:34.246Z,36.90
2023-09-24T11:09:18.708Z,37.56
2023-09-24T11:11:49.513Z,37.78
2023-09-24T11:14:23.814Z,36.73
2023-09-24T11:16:52.438Z,36.51
2023-09-24T11:19:45.447Z,36.00
2023-09-24T11:22:17.874Z,35.36
2023-09-24T11:24:45.689Z,35.36
2023-09-24T11:27:13.798Z,35.86
2023-09-24T11:29:41.985Z,35.02
2023-09-24T11:32:26.107Z,34.98
2023-09-24T11:35:09.001Z,35.83
2023-09-24T11:37:51.367Z,36.03
2023-09-24T11:40:23.832Z,35.00
2023-09-24T11:42:53.086Z,36.19
2023-09-24T11:45:39.766Z,38.07
2023-09-24T11:48:08.556Z,37.56
2023-09-24T11:50:39.700Z,35.99
2023-09-24T11:53:08.290Z,36.89
2023-09-24T11:55:37.161Z,37.32
2023-09-24T11:58:06.749Z,37.49
2023-09-24T12:00:35.618Z,35.67
2023-09-24T12:03:05.227Z,38.40
2023-09-24T12:05:34.526Z,35.26
2023-09-24T12:08:05.679Z,36.75
2023-09-24T12:10:34.878Z,36.79
2023-09-24T12:13:05.336Z,34.77
2023-09-24T12:15:34.570Z,35.98
2023-09-24T12:18:05.533Z,35.52
2023-09-24T12:20:34.579Z,34.16
2023-09-24T12:23:05.663Z,35.94
2023-09-24T12:25:38.123Z,35.17
2023-09-24T12:28:08.144Z,34.52
2023-09-24T12:30:36.425Z,34.23
2023-09-24T12:33:04.831Z,32.90
2023-09-24T12:35:32.922Z,29.76
2023-09-24T12:38:00.955Z,32.33
2023-09-24T12:40:30.754Z,32.25
2023-09-24T12:42:59.036Z,32.03
2023-09-24T12:45:26.936Z,32.64
2023-09-24T12:47:54.959Z,32.39
2023-09-24T12:50:22.829Z,30.91
2023-09-24T12:52:50.683Z,32.33
2023-09-24T12:55:18.515Z,31.87
2023-09-24T12:57:47.838Z,32.53
2023-09-24T13:00:17.851Z,32.55
2023-09-24T13:02:47.801Z,32.05
2023-09-24T13:05:17.893Z,31.34
2023-09-24T13:07:48.092Z,29.60
2023-09-24T13:10:17.786Z,32.33
2023-09-24T13:12:47.044Z,33.11
2023-09-24T13:15:15.067Z,32.80
2023-09-24T13:17:43.420Z,32.05
2023-09-24T13:20:12.323Z,31.18
2023-09-24T13:22:40.421Z,33.25
2023-09-24T13:25:09.987Z,34.61
2023-09-24T13:27:38.999Z,32.98
2023-09-24T13:30:09.710Z,33.05
2023-09-24T13:32:38.096Z,33.61
2023-09-24T13:35:08.772Z,33.12
2023-09-24T13:37:38.783Z,33.52
2023-09-24T13:40:22.859Z,35.35
2023-09-24T13:43:00.201Z,36.45
2023-09-24T13:45:29.531Z,36.51
2023-09-24T13:47:57.797Z,38.12
2023-09-24T13:50:25.866Z,37.13
2023-09-24T13:52:53.732Z,37.96
2023-09-24T13:55:21.697Z,37.56
2023-09-24T13:57:49.532Z,37.69
2023-09-24T14:00:18.064Z,37.41
2023-09-24T14:02:47.404Z,38.69
2023-09-24T14:05:15.425Z,38.67
2023-09-24T14:07:43.184Z,38.69
2023-09-24T14:10:28.910Z,38.73
2023-09-24T14:12:56.854Z,39.11
2023-09-24T14:15:24.698Z,40.08
2023-09-24T14:18:11.501Z,40.75
2023-09-24T14:20:41.677Z,40.88
2023-09-24T14:23:09.556Z,40.84
2023-09-24T14:25:39.256Z,41.04
2023-09-24T14:28:07.414Z,42.80
2023-09-24T14:30:38.425Z,43.06
2023-09-24T14:33:10.095Z,43.38
2023-09-24T14:35:37.950Z,42.91
2023-09-24T14:38:06.137Z,43.83
2023-09-24T14:40:36.324Z,44.45
2023-09-24T14:43:04.740Z,43.71
2023-09-24T14:45:32.534Z,44.03
2023-09-24T14:48:01.123Z,44.31
2023-09-24T14:50:30.477Z,43.93
2023-09-24T14:52:58.296Z,44.45
2023-09-24T14:55:26.277Z,45.01
2023-09-24T14:57:55.744Z,45.26
2023-09-24T15:00:25.906Z,44.59
2023-09-24T15:02:56.766Z,45.95
2023-09-24T15:05:25.209Z,45.36
2023-09-24T15:07:54.593Z,46.27
2023-09-24T15:10:23.572Z,46.91
2023-09-24T15:12:53.337Z,46.67
2023-09-24T15:15:21.230Z,46.75
2023-09-24T15:17:49.109Z,46.92
2023-09-24T15:20:17.124Z,46.78
2023-09-24T15:22:44.974Z,47.14
2023-09-24T15:25:14.191Z,47.21
2023-09-24T15:27:42.057Z,46.67
2023-09-24T15:30:10.686Z,47.34
2023-09-24T15:32:38.556Z,46.84
2023-09-24T15:35:07.340Z,46.44
2023-09-24T15:37:35.236Z,45.58
2023-09-24T15:40:03.833Z,46.09
2023-09-24T15:42:33.070Z,45.16
2023-09-24T15:45:01.045Z,44.63
2023-09-24T15:47:29.154Z,44.72
2023-09-24T15:49:58.284Z,44.79
2023-09-24T15:52:26.235Z,44.61
2023-09-24T15:54:54.146Z,44.92
2023-09-24T15:57:23.914Z,45.40
2023-09-24T15:59:53.265Z,45.34
2023-09-24T16:02:21.152Z,44.89
2023-09-24T16:04:49.195Z,44.98
2023-09-24T16:07:17.036Z,45.26
2023-09-24T16:09:44.888Z,43.95
2023-09-24T16:12:12.875Z,44.66
2023-09-24T16:14:40.890Z,44.43
2023-09-24T16:17:10.279Z,44.55
2023-09-24T16:19:38.301Z,44.51
2023-09-24T16:22:06.614Z,45.13
2023-09-24T16:24:34.882Z,45.10
2023-09-24T16:27:03.159Z,44.69
2023-09-24T16:29:31.452Z,43.27
2023-09-24T16:31:59.435Z,43.65
2023-09-24T16:34:29.698Z,43.72
2023-09-24T16:36:57.734Z,44.56
2023-09-24T16:39:25.733Z,44.88
2023-09-24T16:41:53.656Z,44.85
2023-09-24T16:44:21.641Z,44.75
2023-09-24T16:46:49.789Z,45.29
2023-09-24T16:49:18.377Z,45.39
2023-09-24T16:51:48.590Z,45.96
2023-09-24T16:54:18.467Z,46.01
2023-09-24T16:56:46.521Z,46.16
2023-09-24T16:59:14.369Z,46.58
2023-09-24T17:01:42.303Z,46.49
2023-09-24T17:04:10.752Z,46.90
2023-09-24T17:06:38.883Z,47.36
2023-09-24T17:09:10.483Z,48.87
2023-09-24T17:11:38.514Z,48.29
2023-09-24T17:14:07.842Z,49.04
2023-09-24T17:16:35.750Z,48.42
2023-09-24T17:19:03.850Z,50.01
2023-09-24T17:21:32.030Z,50.23
2023-09-24T17:24:00.079Z,50.28
2023-09-24T17:26:29.601Z,51.02
2023-09-24T17:28:57.584Z,51.88
2023-09-24T17:31:28.704Z,52.10
2023-09-24T17:33:57.615Z,52.30
2023-09-24T17:36:25.629Z,53.27
2023-09-24T17:38:55.025Z,53.33
2023-09-24T17:41:24.404Z,53.50
2023-09-24T17:43:53.787Z,54.65
2023-09-24T17:46:25.091Z,54.98
2023-09-24T17:48:53.297Z,56.00
2023-09-24T17:51:21.119Z,57.11
2023-09-24T17:53:49.130Z,57.52
2023-09-24T17:56:18.002Z,57.55
2023-09-24T17:58:45.938Z,58.40
2023-09-24T18:01:16.779Z,59.37
2023-09-24T18:03:47.050Z,59.12
2023-09-24T18:06:16.905Z,60.50
2023-09-24T18:08:45.902Z,60.87
2023-09-24T18:11:14.181Z,61.61
2023-09-24T18:13:42.028Z,62.33
2023-09-24T18:16:10.158Z,63.32
2023-09-24T18:18:40.253Z,63.50
2023-09-24T18:21:08.912Z,64.13
2023-09-24T18:23:37.507Z,64.25
2023-09-24T18:26:05.823Z,64.63
2023-09-24T18:28:33.851Z,65.22
2023-09-24T18:31:02.010Z,65.64
2023-09-24T18:33:30.462Z,66.59
2023-09-24T18:36:00.994Z,66.26
2023-09-24T18:38:29.543Z,67.53
2023-09-24T18:40:57.946Z,68.43
2023-09-24T18:43:26.381Z,68.86
2023-09-24T18:46:01.296Z,69.20
2023-09-24T18:48:29.921Z,69.88
2023-09-24T18:50:58.666Z,69.59
2023-09-24T18:53:28.290Z,70.44
2023-09-24T18:56:03.519Z,71.78
2023-09-24T18:58:33.039Z,72.25
2023-09-24T19:01:01.048Z,72.59
2023-09-24T19:03:29.107Z,72.78
2023-09-24T19:05:58.505Z,73.38
2023-09-24T19:08:27.923Z,73.44
2023-09-24T19:10:55.992Z,73.58
2023-09-24T19:13:29.935Z,73.31
2023-09-24T19:16:05.318Z,73.31
2023-09-24T19:18:34.152Z,73.40
2023-09-24T19:21:02.668Z,73.65
2023-09-24T19:23:33.531Z,73.30
2023-09-24T19:26:11.774Z,73.59
2023-09-24T19:28:40.016Z,73.65
2023-09-24T19:31:09.178Z,73.92
2023-09-24T19:33:38.467Z,74.01
2023-09-24T19:36:07.799Z,73.86
2023-09-24T19:38:37.814Z,74.32
2023-09-24T19:41:07.045Z,73.80
2023-09-24T19:43:35.225Z,73.69
2023-09-24T19:46:03.253Z,73.17
2023-09-24T19:48:32.529Z,73.36
2023-09-24T19:51:00.857Z,73.49
2023-09-24T19:53:28.779Z,73.24
2023-09-24T19:55:58.022Z,73.56
2023-09-24T19:58:29.320Z,73.65
2023-09-24T20:01:00.522Z,73.27
2023-09-24T20:03:29.007Z,74.17
2023-09-24T20:05:57.592Z,74.21
2023-09-24T20:08:27.346Z,74.53
2023-09-24T20:10:55.464Z,75.60
2023-09-24T20:13:25.001Z,76.41
2023-09-24T20:15:54.124Z,76.26
2023-09-24T20:18:22.122Z,76.44
2023-09-24T20:20:50.058Z,77.21
2023-09-24T20:23:20.455Z,77.26
2023-09-24T20:25:54.926Z,77.43
2023-09-24T20:28:33.767Z,77.98
2023-09-24T20:31:15.294Z,78.09
2023-09-24T20:34:00.061Z,78.74
2023-09-24T20:36:31.803Z,79.73
2023-09-24T20:39:04.484Z,79.59
2023-09-24T20:41:36.275Z,79.88
2023-09-24T20:44:06.583Z,79.98
2023-09-24T20:46:37.492Z,79.99
2023-09-24T20:49:06.344Z,80.30
2023-09-24T20:51:34.522Z,80.57
2023-09-24T20:54:02.728Z,80.87
2023-09-24T20:56:32.395Z,81.45
2023-09-24T20:59:03.813Z,81.63
2023-09-24T21:01:33.376Z,81.73
2023-09-24T21:04:02.313Z,82.14
2023-09-24T21:06:30.226Z,82.91
2023-09-24T21:09:01.152Z,82.65
2023-09-24T21:11:29.136Z,83.39
2023-09-24T21:13:56.969Z,83.59
2023-09-24T21:16:25.384Z,84.07
2023-09-24T21:18:57.019Z,84.45
2023-09-24T21:21:25.079Z,84.50
2023-09-24T21:23:52.927Z,85.29
2023-09-24T21:26:22.084Z,85.51
2023-09-24T21:28:50.658Z,86.22
2023-09-24T21:31:18.642Z,86.70
2023-09-24T21:33:47.064Z,87.21
2023-09-24T21:36:16.684Z,87.94
2023-09-24T21:38:44.674Z,87.53
2023-09-24T21:41:12.567Z,87.87
2023-09-24T21:43:40.424Z,87.39
2023-09-24T21:46:10.614Z,87.42
2023-09-24T21:48:38.493Z,87.91
2023-09-24T21:51:06.923Z,87.73
2023-09-24T21:53:36.181Z,87.77
2023-09-24T21:56:04.095Z,87.67
2023-09-24T21:58:32.082Z,87.86
2023-09-24T22:01:00.112Z,88.38
2023-09-24T22:03:28.591Z,88.71
2023-09-24T22:05:57.328Z,88.76
2023-09-24T22:08:25.840Z,88.93
2023-09-24T22:10:55.178Z,89.11
2023-09-24T22:13:23.311Z,89.36
2023-09-24T22:15:51.276Z,88.89
2023-09-24T22:18:19.196Z,88.69
2023-09-24T22:20:47.434Z,88.58
2023-09-24T22:23:15.298Z,88.95
2023-09-24T22:25:43.261Z,89.05
2023-09-24T22:28:12.674Z,89.31
2023-09-24T22:30:40.750Z,89.60
2023-09-24T22:33:09.686Z,89.44
2023-09-24T22:35:37.790Z,89.63
2023-09-24T22:38:06.465Z,89.94
2023-09-24T22:40:34.376Z,90.12
2023-09-24T22:43:15.631Z,90.20
2023-09-24T22:45:50.278Z,89.90
2023-09-24T22:48:18.707Z,90.06
2023-09-24T22:50:51.610Z,90.04
2023-09-24T22:53:19.551Z,90.49
2023-09-24T22:55:47.871Z,90.69
2023-09-24T22:58:15.931Z,90.65
2023-09-24T23:00:43.967Z,91.13
2023-09-24T23:03:13.478Z,91.34
2023-09-24T23:05:41.844Z,91.43
2023-09-24T23:08:09.729Z,91.88
2023-09-24T23:10:38.550Z,92.02
2023-09-24T23:13:06.834Z,92.08
2023-09-24T23:15:36.178Z,92.02
2023-09-24T23:18:04.391Z,91.95
2023-09-24T23:20:33.962Z,92.03
2023-09-24T23:23:01.849Z,92.19
2023-09-24T23:25:29.621Z,92.51
2023-09-24T23:27:58.897Z,92.58
2023-09-24T23:30:27.188Z,92.58
2023-09-24T23:32:56.011Z,92.56
2023-09-24T23:35:24.141Z,92.45
2023-09-24T23:37:53.351Z,92.64
2023-09-24T23:40:24.544Z,92.42
2023-09-24T23:42:55.338Z,92.64
2023-09-24T23:45:23.506Z,92.50
2023-09-24T23:47:51.847Z,92.47
2023-09-24T23:50:20.271Z,92.70
2023-09-24T23:52:48.175Z,92.37
2023-09-24T23:55:16.362Z,92.15
2023-09-24T23:57:44.326Z,92.19
